Time;durP1;ratioP1;P1;durP2;ratioP2;P2;SDS_P1;SDS_P2;PMS_P1;PMS_P2;Temp;Humidity;BMP_temperature;BMP_pressure;BME280_temperature;BME280_humidity;BME280_pressure;Samples;Min_cycle;Max_cycle;Signal;HPM_P1;HPM_P2
2023/01/30 00:01:18;;;;;;;38.80;21.15;;;4.90;99.90;;;;;;5053627;28;20048;-79
2023/01/30 00:03:44;;;;;;;41.58;22.25;;;4.90;99.90;;;;;;5053362;28;20045;-80
2023/01/30 00:06:10;;;;;;;45.85;23.20;;;5.30;99.90;;;;;;5052646;28;20045;-80
2023/01/30 00:08:38;;;;;;;45.83;22.83;;;5.00;99.90;;;;;;5035866;28;20100;-80
2023/01/30 00:11:06;;;;;;;45.83;21.55;;;5.00;99.90;;;;;;5053436;28;20552;-80
2023/01/30 00:13:31;;;;;;;42.20;22.13;;;5.00;99.90;;;;;;5052095;28;20481;-80
2023/01/30 00:15:57;;;;;;;44.55;21.67;;;5.00;99.90;;;;;;5054701;28;20049;-81
2023/01/30 00:18:22;;;;;;;39.85;21.40;;;5.00;99.90;;;;;;5057402;28;20047;-80
2023/01/30 00:20:53;;;;;;;42.83;21.65;;;5.70;99.90;;;;;;5057323;28;20123;-80
2023/01/30 00:23:19;;;;;;;43.20;22.45;;;5.00;99.90;;;;;;5057329;28;20087;-80
2023/01/30 00:25:45;;;;;;;42.38;21.60;;;5.60;99.90;;;;;;5057546;28;20045;-80
2023/01/30 00:28:10;;;;;;;42.00;22.20;;;5.00;99.90;;;;;;5056428;28;20033;-80
2023/01/30 00:30:36;;;;;;;43.22;21.88;;;5.10;99.90;;;;;;5057290;28;20079;-80
2023/01/30 00:33:01;;;;;;;43.30;23.58;;;5.10;99.90;;;;;;5057060;28;20487;-79
2023/01/30 00:35:27;;;;;;;40.15;20.27;;;5.10;99.90;;;;;;5057099;28;20052;-79
2023/01/30 00:37:55;;;;;;;34.50;19.40;;;5.20;99.90;;;;;;5055872;28;20488;-80
2023/01/30 00:40:20;;;;;;;39.50;22.10;;;5.10;99.90;;;;;;5057017;28;20064;-80
2023/01/30 00:48:14;;;;;;;45.63;20.30;;;5.20;99.90;;;;;;5056877;28;20057;-80
2023/01/30 00:50:43;;;;;;;34.70;19.10;;;5.20;99.90;;;;;;5056744;28;20503;-80
2023/01/30 00:53:13;;;;;;;38.17;20.23;;;5.30;99.90;;;;;;5056626;28;20066;-81
2023/01/30 00:55:39;;;;;;;38.78;20.73;;;5.30;99.90;;;;;;5056920;28;20183;-80
2023/01/30 00:58:04;;;;;;;35.97;19.85;;;5.30;99.90;;;;;;5056699;28;20087;-81
2023/01/30 01:00:30;;;;;;;39.50;20.38;;;5.30;99.90;;;;;;5056618;28;20080;-80
2023/01/30 01:02:56;;;;;;;37.15;20.30;;;5.30;99.90;;;;;;5056476;28;20421;-80
2023/01/30 01:05:21;;;;;;;34.85;19.15;;;5.40;99.90;;;;;;5056516;28;20091;-80
2023/01/30 01:07:47;;;;;;;34.13;17.95;;;5.50;99.90;;;;;;5056489;28;20388;-80
2023/01/30 01:10:15;;;;;;;38.83;18.27;;;5.50;99.90;;;;;;5056470;28;20048;-79
2023/01/30 01:12:42;;;;;;;34.00;18.88;;;5.50;99.90;;;;;;5056342;28;20087;-80
2023/01/30 01:15:08;;;;;;;;;;;5.60;99.90;;;;;;5039459;28;20048;-80
2023/01/30 01:17:33;;;;;;;34.08;18.92;;;5.60;99.90;;;;;;5056272;28;20288;-81
2023/01/30 01:19:59;;;;;;;36.10;18.70;;;5.60;99.90;;;;;;5056174;28;20059;-80
2023/01/30 01:22:25;;;;;;;32.10;17.60;;;5.70;99.90;;;;;;5056625;28;20045;-80
2023/01/30 01:24:50;;;;;;;34.75;19.10;;;5.70;99.90;;;;;;5056219;28;20040;-80
2023/01/30 01:27:18;;;;;;;34.38;17.38;;;5.70;99.90;;;;;;5055180;28;20037;-80
2023/01/30 01:29:43;;;;;;;34.78;18.92;;;5.80;99.90;;;;;;5055852;28;20484;-81
2023/01/30 01:32:09;;;;;;;32.92;18.05;;;5.80;99.90;;;;;;5056068;28;20055;-80
2023/01/30 01:34:35;;;;;;;32.03;17.88;;;5.90;99.90;;;;;;5055622;28;20041;-80
2023/01/30 01:37:00;;;;;;;35.22;19.23;;;5.90;99.90;;;;;;5056039;28;20041;-81
2023/01/30 01:41:00;;;;;;;35.72;17.13;;;5.90;99.90;;;;;;5054814;28;20459;-81
2023/01/30 01:42:11;;;;;;;30.45;17.05;;;5.90;99.90;;;;;;5056570;28;20053;-81
2023/01/30 01:45:10;;;;;;;35.22;18.38;;;5.50;99.90;;;;;;5055816;28;20565;-81
2023/01/30 01:47:42;;;;;;;29.35;16.48;;;5.90;99.90;;;;;;5055634;28;20067;-81
2023/01/30 01:50:51;;;;;;;29.42;16.50;;;5.90;99.90;;;;;;5055828;28;20045;-81
2023/01/30 01:53:20;;;;;;;30.38;16.75;;;6.00;99.90;;;;;;5017040;28;20072;-81
2023/01/30 01:55:48;;;;;;;32.75;15.65;;;6.20;99.90;;;;;;5055428;28;20362;-81
2023/01/30 01:58:41;;;;;;;26.85;13.95;;;6.00;99.90;;;;;;5054631;28;20118;-81
2023/01/30 02:01:07;;;;;;;28.45;14.70;;;6.10;99.90;;;;;;5047351;28;20053;-81
2023/01/30 02:03:40;;;;;;;30.85;15.35;;;6.00;99.90;;;;;;5055471;28;20388;-81
2023/01/30 02:06:07;;;;;;;33.75;15.32;;;6.10;99.90;;;;;;5055703;28;20084;-81
2023/01/30 02:08:37;;;;;;;29.55;14.18;;;6.10;99.90;;;;;;5055433;28;20044;-81
2023/01/30 02:11:08;;;;;;;29.38;14.73;;;6.10;99.90;;;;;;5054510;28;20392;-81
2023/01/30 02:13:34;;;;;;;24.10;13.88;;;6.10;99.90;;;;;;5055226;28;20040;-80
2023/01/30 02:16:01;;;;;;;24.45;13.30;;;6.10;99.90;;;;;;5055312;28;20443;-81
2023/01/30 02:18:29;;;;;;;24.10;12.77;;;6.10;99.90;;;;;;5055235;28;20045;-81
2023/01/30 02:21:12;;;;;;;20.20;11.32;;;6.30;99.90;;;;;;5054010;28;20049;-80
2023/01/30 02:23:53;;;;;;;22.23;11.50;;;6.10;99.90;;;;;;5054793;28;20480;-82
2023/01/30 02:26:41;;;;;;;16.58;10.05;;;6.90;99.90;;;;;;5055030;28;20057;-81
2023/01/30 02:29:34;;;;;;;18.33;9.57;;;6.20;99.90;;;;;;5055126;28;20401;-81
2023/01/30 02:32:26;;;;;;;18.17;9.52;;;6.20;99.90;;;;;;5053780;28;20053;-81
2023/01/30 02:35:15;;;;;;;15.20;8.75;;;6.20;99.90;;;;;;5050778;28;20099;-82
2023/01/30 02:38:02;;;;;;;14.68;8.75;;;6.20;99.90;;;;;;5053922;28;20045;-81
2023/01/30 02:40:37;;;;;;;13.88;7.53;;;6.20;99.90;;;;;;5054146;28;20397;-82
2023/01/30 02:43:12;;;;;;;14.23;7.45;;;6.20;99.90;;;;;;5053634;28;20048;-81
2023/01/30 02:45:55;;;;;;;14.27;7.53;;;6.20;99.90;;;;;;5054629;28;20128;-81
2023/01/30 02:48:30;;;;;;;15.98;6.97;;;6.30;99.90;;;;;;5053482;28;20064;-82
2023/01/30 02:51:04;;;;;;;11.27;6.75;;;6.30;99.90;;;;;;5054825;28;20055;-81
2023/01/30 02:53:34;;;;;;;13.90;6.20;;;6.30;99.90;;;;;;5054442;28;20548;-82
2023/01/30 02:56:00;;;;;;;12.32;6.18;;;6.30;99.90;;;;;;5054472;28;20084;-81
2023/01/30 02:58:32;;;;;;;13.90;5.53;;;6.30;99.90;;;;;;5054653;28;20052;-81
2023/01/30 03:01:26;;;;;;;8.82;4.88;;;6.30;99.90;;;;;;5054017;28;20048;-81
2023/01/30 03:04:25;;;;;;;14.63;5.15;;;6.40;99.90;;;;;;5054206;28;20084;-82
2023/01/30 03:07:18;;;;;;;11.60;4.93;;;6.40;99.90;;;;;;5054229;28;20094;-81
2023/01/30 03:09:56;;;;;;;8.98;4.30;;;6.40;99.90;;;;;;5054318;28;20186;-82
2023/01/30 03:12:37;;;;;;;7.63;4.13;;;6.40;99.90;;;;;;5053346;28;20041;-81
2023/01/30 03:15:28;;;;;;;9.73;3.92;;;6.40;99.90;;;;;;5054156;28;20041;-81
2023/01/30 03:17:54;;;;;;;8.32;3.88;;;6.40;99.90;;;;;;5053907;28;20080;-82
2023/01/30 03:20:19;;;;;;;6.40;3.85;;;7.30;99.90;;;;;;5054064;28;20084;-82
2023/01/30 03:22:45;;;;;;;7.20;3.90;;;7.30;99.90;;;;;;5053156;28;20045;-81
2023/01/30 03:25:19;;;;;;;8.00;3.97;;;6.40;99.90;;;;;;5054045;28;20045;-81
2023/01/30 03:27:45;;;;;;;10.45;4.15;;;7.10;99.90;;;;;;5054449;28;20055;-81
2023/01/30 03:30:11;;;;;;;11.65;4.75;;;6.50;99.90;;;;;;5053968;28;20045;-81
2023/01/30 03:32:37;;;;;;;13.18;4.18;;;6.50;99.90;;;;;;5053597;28;20076;-81
2023/01/30 03:35:03;;;;;;;11.98;4.22;;;6.70;99.90;;;;;;5053785;28;20523;-82
2023/01/30 03:37:29;;;;;;;10.85;4.15;;;6.50;99.90;;;;;;5052853;28;20041;-81
2023/01/30 03:39:55;;;;;;;8.57;3.55;;;6.50;99.90;;;;;;5052513;28;20048;-81
2023/01/30 03:42:20;;;;;;;10.05;4.00;;;6.50;99.90;;;;;;5054392;28;20473;-81
2023/01/30 03:44:46;;;;;;;9.88;3.88;;;6.50;99.90;;;;;;5053662;28;20436;-80
2023/01/30 03:47:11;;;;;;;16.90;4.50;;;6.60;99.90;;;;;;5053609;28;20048;-80
2023/01/30 03:49:37;;;;;;;9.35;4.55;;;6.60;99.90;;;;;;5035718;28;20053;-81
2023/01/30 03:52:03;;;;;;;10.18;4.07;;;6.60;99.90;;;;;;5053356;28;20083;-81
2023/01/30 03:54:28;;;;;;;14.57;5.95;;;6.60;99.90;;;;;;5035822;28;20037;-81
2023/01/30 03:56:54;;;;;;;10.20;3.67;;;6.60;99.90;;;;;;5052473;28;20393;-81
2023/01/30 03:59:19;;;;;;;9.80;3.75;;;6.60;99.90;;;;;;5053184;28;20037;-81
2023/01/30 04:01:45;;;;;;;10.65;3.88;;;6.70;99.90;;;;;;5053756;28;20041;-81
2023/01/30 04:04:11;;;;;;;8.98;4.00;;;6.60;99.90;;;;;;5053405;28;20041;-80
2023/01/30 04:06:36;;;;;;;15.13;3.67;;;6.70;99.90;;;;;;5052246;28;20041;-81
2023/01/30 04:09:02;;;;;;;12.95;4.55;;;6.70;99.90;;;;;;5053436;28;20091;-80
2023/01/30 04:11:28;;;;;;;17.42;3.80;;;7.10;99.90;;;;;;5052542;28;20183;-81
2023/01/30 04:13:53;;;;;;;15.63;4.00;;;6.70;99.90;;;;;;5053361;28;20048;-81
2023/01/30 04:16:24;;;;;;;9.35;3.38;;;6.70;99.90;;;;;;5053741;28;20053;-82
2023/01/30 04:18:50;;;;;;;14.73;3.97;;;6.60;99.90;;;;;;5053473;28;20045;-82
2023/01/30 04:21:16;;;;;;;11.77;3.85;;;7.60;99.90;;;;;;5053343;28;20365;-81
2023/01/30 04:23:41;;;;;;;11.73;3.53;;;6.70;99.90;;;;;;5053212;28;20040;-81
2023/01/30 04:26:08;;;;;;;10.38;3.33;;;6.70;99.90;;;;;;5053316;28;20044;-80
2023/01/30 04:28:34;;;;;;;12.55;3.90;;;6.70;99.90;;;;;;5053256;28;20102;-80
2023/01/30 04:31:00;;;;;;;14.60;3.57;;;6.70;99.90;;;;;;5052125;28;20045;-81
2023/01/30 04:33:26;;;;;;;17.50;3.80;;;6.70;99.90;;;;;;5053026;28;20309;-82
2023/01/30 04:35:56;;;;;;;14.52;3.60;;;6.70;99.90;;;;;;5053183;28;20095;-81
2023/01/30 04:38:23;;;;;;;16.90;3.83;;;6.70;99.90;;;;;;5053140;28;20053;-81
2023/01/30 04:40:53;;;;;;;15.38;6.95;;;6.70;99.90;;;;;;5053206;28;20084;-81
2023/01/30 04:43:23;;;;;;;12.35;4.07;;;6.90;99.90;;;;;;5053123;28;20040;-81
2023/01/30 04:45:49;;;;;;;11.48;3.35;;;6.70;99.90;;;;;;5053046;28;20388;-80
2023/01/30 04:48:16;;;;;;;15.57;3.58;;;6.70;99.90;;;;;;5052976;28;20083;-80
2023/01/30 04:50:43;;;;;;;12.00;3.40;;;6.70;99.90;;;;;;5053105;28;20045;-81
2023/01/30 04:53:09;;;;;;;20.83;4.00;;;6.70;99.90;;;;;;5052960;28;20045;-82
2023/01/30 04:55:35;;;;;;;18.65;3.67;;;6.70;99.90;;;;;;5051851;28;20041;-81
2023/01/30 04:58:00;;;;;;;18.60;4.63;;;6.60;99.90;;;;;;5051970;28;20060;-82
2023/01/30 05:00:26;;;;;;;14.18;3.55;;;7.50;99.90;;;;;;5053102;28;20045;-81
2023/01/30 05:02:54;;;;;;;15.82;3.75;;;6.50;99.90;;;;;;5054220;28;20128;-81
2023/01/30 05:05:21;;;;;;;14.18;3.70;;;6.50;99.90;;;;;;5056715;28;20040;-81
2023/01/30 05:07:47;;;;;;;10.23;3.70;;;6.40;99.90;;;;;;5056533;28;20408;-81
2023/01/30 05:10:12;;;;;;;19.92;4.32;;;7.10;99.90;;;;;;5056995;28;20037;-81
2023/01/30 05:12:38;;;;;;;19.92;3.65;;;6.40;99.90;;;;;;5056751;28;20157;-80
2023/01/30 05:15:05;;;;;;;17.27;3.83;;;6.40;99.90;;;;;;5055952;28;20183;-80
2023/01/30 05:17:31;;;;;;;12.57;4.22;;;6.30;99.90;;;;;;5056422;28;20051;-81
2023/01/30 05:19:57;;;;;;;7.88;2.67;;;7.30;99.90;;;;;;5038933;28;20118;-81
2023/01/30 05:22:22;;;;;;;15.13;3.97;;;6.30;99.90;;;;;;5056225;28;20477;-80
2023/01/30 05:24:48;;;;;;;12.77;3.38;;;6.30;99.90;;;;;;5056339;28;20072;-80
2023/01/30 05:27:13;;;;;;;11.15;2.95;;;7.00;99.90;;;;;;5055289;28;20477;-81
2023/01/30 05:29:39;;;;;;;17.95;3.58;;;6.30;99.90;;;;;;5056137;28;20059;-81
2023/01/30 05:32:05;;;;;;;9.57;2.90;;;6.30;99.90;;;;;;5056302;28;20393;-81
2023/01/30 05:34:30;;;;;;;16.50;3.47;;;6.30;99.90;;;;;;5055993;28;20124;-81
2023/01/30 05:36:56;;;;;;;19.20;3.63;;;6.20;99.90;;;;;;5054895;28;20041;-80
2023/01/30 05:39:22;;;;;;;12.65;3.20;;;6.20;99.90;;;;;;5055985;28;20477;-80
2023/01/30 05:41:47;;;;;;;15.75;3.17;;;6.20;99.90;;;;;;5055972;28;20041;-82
2023/01/30 05:44:13;;;;;;;20.75;3.58;;;6.20;99.90;;;;;;5055057;28;20033;-81
2023/01/30 05:46:38;;;;;;;18.85;3.70;;;6.20;99.90;;;;;;5055809;28;20139;-81
2023/01/30 05:49:06;;;;;;;15.85;3.40;;;6.10;99.90;;;;;;5055514;28;20465;-80
2023/01/30 05:51:31;;;;;;;15.88;3.03;;;6.10;99.90;;;;;;5054494;28;20140;-81
2023/01/30 05:53:57;;;;;;;16.98;3.70;;;6.10;99.90;;;;;;5055450;28;20247;-81
2023/01/30 05:56:23;;;;;;;16.27;3.22;;;6.10;99.90;;;;;;5055688;28;20106;-81
2023/01/30 05:58:53;;;;;;;10.35;3.50;;;6.10;99.90;;;;;;5055848;28;20044;-81
2023/01/30 06:01:19;;;;;;;13.60;3.05;;;6.10;99.90;;;;;;5054632;28;20040;-81
2023/01/30 06:03:45;;;;;;;11.23;3.55;;;6.00;99.90;;;;;;5055460;28;20124;-81
2023/01/30 06:06:12;;;;;;;13.45;3.10;;;6.00;99.90;;;;;;5037592;28;20056;-80
2023/01/30 06:08:37;;;;;;;23.85;3.63;;;5.90;99.90;;;;;;5055476;28;20048;-82
2023/01/30 06:11:06;;;;;;;13.32;3.15;;;5.90;99.90;;;;;;5055488;28;20393;-82
2023/01/30 06:13:32;;;;;;;21.27;4.10;;;5.80;99.90;;;;;;5055295;28;20071;-82
2023/01/30 06:15:58;;;;;;;23.17;5.10;;;5.80;99.90;;;;;;5055648;28;20481;-82
2023/01/30 06:18:24;;;;;;;13.23;3.22;;;6.40;99.90;;;;;;5055525;28;20377;-85
2023/01/30 06:20:51;;;;;;;17.42;4.30;;;5.60;99.90;;;;;;5037709;28;20075;-81
2023/01/30 06:23:17;;;;;;;15.40;3.50;;;5.60;99.90;;;;;;5055760;28;20048;-81
2023/01/30 06:25:44;;;;;;;18.00;3.33;;;6.20;99.90;;;;;;5054143;28;20103;-80
2023/01/30 06:28:10;;;;;;;18.13;3.42;;;5.70;99.90;;;;;;5054644;28;20106;-82
2023/01/30 06:30:35;;;;;;;19.88;3.33;;;5.50;99.90;;;;;;5055192;28;20497;-83
2023/01/30 06:33:01;;;;;;;17.38;3.58;;;5.50;99.90;;;;;;5054108;28;20037;-83
2023/01/30 06:35:26;;;;;;;19.38;4.03;;;5.40;99.90;;;;;;5037655;28;20083;-83
2023/01/30 06:37:52;;;;;;;18.02;3.50;;;5.40;99.90;;;;;;5053804;28;20124;-82
2023/01/30 06:40:18;;;;;;;17.38;3.63;;;5.40;99.90;;;;;;5055362;28;20049;-84
2023/01/30 06:42:45;;;;;;;19.40;3.42;;;5.40;99.90;;;;;;5054295;28;20392;-84
2023/01/30 06:45:11;;;;;;;;;;;5.40;99.90;;;;;;5055317;28;20124;-82
2023/01/30 06:47:44;;;;;;;17.92;3.20;;;5.40;99.90;;;;;;5054736;28;19921;-83
2023/01/30 06:50:10;;;;;;;22.45;3.63;;;6.20;99.90;;;;;;5054747;28;20056;-83
2023/01/30 06:52:42;;;;;;;16.80;3.33;;;5.40;99.90;;;;;;5054651;28;20041;-85
2023/01/30 06:55:10;;;;;;;22.48;4.25;;;5.50;99.90;;;;;;5053783;28;20055;-83
2023/01/30 06:57:35;;;;;;;14.55;3.08;;;5.50;99.90;;;;;;5037100;28;20084;-81
2023/01/30 07:00:03;;;;;;;22.85;4.10;;;5.40;99.90;;;;;;5054645;28;20443;-81
2023/01/30 07:02:33;;;;;;;16.02;3.65;;;5.40;99.90;;;;;;5053169;28;20048;-80
2023/01/30 07:04:59;;;;;;;19.33;3.67;;;5.60;99.90;;;;;;5053436;28;20049;-79
2023/01/30 07:07:24;;;;;;;20.63;3.95;;;5.50;99.90;;;;;;5054203;28;20091;-81
2023/01/30 07:09:50;;;;;;;16.00;3.05;;;5.60;99.90;;;;;;5053133;28;20128;-80
2023/01/30 07:12:15;;;;;;;14.23;3.20;;;5.60;99.90;;;;;;5062765;28;20511;-81
2023/01/30 07:14:41;;;;;;;18.33;4.82;;;5.60;99.90;;;;;;5054080;28;20048;-80
2023/01/30 07:17:07;;;;;;;15.18;3.17;;;5.50;99.90;;;;;;5054068;28;20041;-81
2023/01/30 07:19:32;;;;;;;18.27;3.58;;;5.60;99.90;;;;;;5053771;28;20099;-82
2023/01/30 07:21:58;;;;;;;19.15;5.00;;;5.50;99.90;;;;;;5053068;28;20072;-81
2023/01/30 07:24:23;;;;;;;17.73;3.40;;;5.50;99.90;;;;;;5053912;28;20424;-81
2023/01/30 07:26:49;;;;;;;11.98;2.95;;;5.50;99.90;;;;;;5053231;28;20049;-81
2023/01/30 07:29:15;;;;;;;21.95;3.22;;;5.50;99.90;;;;;;5053886;28;20519;-81
2023/01/30 07:31:43;;;;;;;19.27;3.22;;;5.60;99.90;;;;;;5053004;28;20048;-81
2023/01/30 07:34:08;;;;;;;23.80;3.80;;;5.60;99.90;;;;;;5052244;28;20037;-81
2023/01/30 07:36:34;;;;;;;16.80;3.53;;;5.60;99.90;;;;;;5053460;28;20052;-82
2023/01/30 07:39:00;;;;;;;18.52;3.60;;;5.60;99.90;;;;;;5035841;28;20052;-82
2023/01/30 07:41:26;;;;;;;23.88;3.42;;;5.70;99.90;;;;;;5052558;28;20052;-83
2023/01/30 07:43:52;;;;;;;16.20;3.63;;;5.70;99.90;;;;;;5052739;28;20439;-83
2023/01/30 07:46:17;;;;;;;24.67;3.13;;;5.70;99.90;;;;;;5052524;28;20099;-82
2023/01/30 07:48:44;;;;;;;14.75;3.85;;;5.70;99.90;;;;;;5052848;28;20140;-82
2023/01/30 07:51:09;;;;;;;17.25;3.28;;;5.70;99.90;;;;;;5052206;28;20056;-82
2023/01/30 07:53:35;;;;;;;15.82;3.40;;;5.80;99.90;;;;;;5053440;28;20041;-82
2023/01/30 07:56:09;;;;;;;22.67;3.72;;;5.70;99.90;;;;;;5053464;28;20091;-82
2023/01/30 07:58:34;;;;;;;20.95;3.70;;;5.70;99.90;;;;;;5052530;28;20127;-82
2023/01/30 08:01:00;;;;;;;16.83;3.03;;;5.70;99.90;;;;;;5053355;28;20053;-82
2023/01/30 08:03:26;;;;;;;20.00;3.65;;;5.70;99.90;;;;;;5051971;28;20041;-82
2023/01/30 08:05:52;;;;;;;20.02;3.53;;;5.70;99.90;;;;;;5035920;28;20052;-90
2023/01/30 08:08:19;;;;;;;21.90;3.88;;;5.70;99.90;;;;;;5053814;28;20127;-82
2023/01/30 08:10:47;;;;;;;22.77;3.50;;;5.70;99.90;;;;;;5036318;28;20485;-83
2023/01/30 08:13:13;;;;;;;13.80;3.20;;;6.70;99.90;;;;;;5052196;28;20544;-82
2023/01/30 08:15:39;;;;;;;24.75;3.17;;;5.80;99.90;;;;;;5051881;28;20076;-82
2023/01/30 08:18:08;;;;;;;22.60;4.10;;;5.80;99.90;;;;;;5053005;28;20044;-83
2023/01/30 08:20:34;;;;;;;12.15;3.10;;;5.90;99.90;;;;;;5051976;28;20045;-82
2023/01/30 08:23:01;;;;;;;12.40;3.55;;;5.90;99.90;;;;;;5052251;28;20550;-83
2023/01/30 08:25:27;;;;;;;17.10;4.10;;;5.90;99.90;;;;;;5052379;28;20051;-87
2023/01/30 08:27:53;;;;;;;20.70;3.42;;;5.90;99.90;;;;;;5053057;28;20400;-81
2023/01/30 08:30:19;;;;;;;12.47;3.33;;;5.90;99.90;;;;;;5053200;28;20075;-83
2023/01/30 08:32:45;;;;;;;10.63;2.85;;;6.00;99.90;;;;;;5052663;28;20519;-80
2023/01/30 08:35:11;;;;;;;25.27;3.90;;;6.00;99.90;;;;;;5051854;28;20037;-80
2023/01/30 08:37:39;;;;;;;15.48;3.20;;;6.00;99.90;;;;;;5052382;28;20452;-80
2023/01/30 08:40:05;;;;;;;10.95;3.15;;;6.00;99.90;;;;;;5057049;28;20048;-84
2023/01/30 08:42:31;;;;;;;11.95;3.55;;;6.10;99.90;;;;;;5055999;28;20053;-80
2023/01/30 08:44:56;;;;;;;13.35;3.03;;;6.10;99.90;;;;;;5056905;28;20095;-80
2023/01/30 08:47:22;;;;;;;25.92;4.68;;;6.10;99.90;;;;;;5056745;28;20131;-80
2023/01/30 08:49:50;;;;;;;19.90;4.05;;;6.10;99.90;;;;;;5056573;28;20107;-79
2023/01/30 08:52:16;;;;;;;20.15;3.30;;;6.80;99.90;;;;;;5056867;28;20111;-81
2023/01/30 08:54:41;;;;;;;23.95;3.83;;;6.20;99.90;;;;;;5056608;28;20040;-80
2023/01/30 08:57:07;;;;;;;16.08;3.72;;;6.20;99.90;;;;;;5056418;28;20124;-81
2023/01/30 08:59:32;;;;;;;17.20;4.72;;;6.20;99.90;;;;;;5056453;28;20040;-83
2023/01/30 09:01:58;;;;;;;18.05;4.28;;;6.30;99.90;;;;;;5055473;28;20087;-84
2023/01/30 09:04:25;;;;;;;21.75;4.22;;;6.30;99.90;;;;;;5055400;28;20040;-80
2023/01/30 09:06:51;;;;;;;19.95;5.95;;;6.30;99.90;;;;;;5055540;28;20048;-78
2023/01/30 09:09:17;;;;;;;19.92;3.88;;;6.30;99.90;;;;;;5056524;28;20045;-76
2023/01/30 09:11:42;;;;;;;18.75;3.13;;;6.30;99.90;;;;;;5056243;28;20492;-83
2023/01/30 09:14:08;;;;;;;25.35;3.63;;;6.30;99.90;;;;;;5056207;28;20041;-85
2023/01/30 09:16:34;;;;;;;23.13;3.33;;;6.30;99.90;;;;;;5055298;28;20127;-84
2023/01/30 09:18:59;;;;;;;15.43;3.35;;;6.30;99.90;;;;;;5054853;28;20128;-85
2023/01/30 09:21:25;;;;;;;15.73;4.22;;;6.30;99.90;;;;;;5055029;28;20400;-82
2023/01/30 09:23:51;;;;;;;31.83;5.18;;;6.30;99.90;;;;;;5055914;28;20056;-83
2023/01/30 09:26:16;;;;;;;18.90;4.18;;;6.40;99.90;;;;;;5056271;28;20047;-82
2023/01/30 09:28:42;;;;;;;16.50;3.50;;;6.40;99.90;;;;;;5055889;28;20392;-82
2023/01/30 09:31:07;;;;;;;16.65;3.28;;;6.40;99.90;;;;;;5056203;28;20131;-81
2023/01/30 09:33:33;;;;;;;24.02;3.75;;;7.40;99.90;;;;;;5055766;28;20045;-81
2023/01/30 09:35:59;;;;;;;23.70;3.63;;;6.50;99.90;;;;;;5054860;28;20383;-80
2023/01/30 09:38:24;;;;;;;15.07;3.80;;;6.50;99.90;;;;;;5055883;28;20041;-84
2023/01/30 09:41:11;;;;;;;14.52;3.63;;;6.60;99.90;;;;;;5055905;28;20049;-81
2023/01/30 09:44:02;;;;;;;19.85;4.47;;;6.60;99.90;;;;;;5056521;28;20084;-82
2023/01/30 09:46:58;;;;;;;16.45;3.15;;;6.70;99.90;;;;;;5055971;28;20053;-81
2023/01/30 09:49:36;;;;;;;19.08;3.58;;;6.70;99.90;;;;;;5055166;28;20139;-80
2023/01/30 09:52:08;;;;;;;20.98;3.60;;;7.50;99.90;;;;;;5055519;28;20103;-81
2023/01/30 09:54:39;;;;;;;20.98;3.60;;;6.80;99.90;;;;;;5055584;28;20040;-81
2023/01/30 09:57:23;;;;;;;26.30;4.35;;;6.80;99.90;;;;;;5055652;28;20041;-79
2023/01/30 10:00:10;;;;;;;20.52;3.65;;;6.90;99.90;;;;;;5055560;28;20132;-80
2023/01/30 10:02:52;;;;;;;16.23;3.00;;;7.00;99.90;;;;;;5066121;28;20055;-82
2023/01/30 10:05:18;;;;;;;15.05;3.15;;;7.00;99.90;;;;;;5075312;28;20129;-81
2023/01/30 10:07:56;;;;;;;19.45;3.40;;;7.10;99.90;;;;;;5073738;28;20040;-82
2023/01/30 10:11:00;;;;;;;9.85;3.08;;;7.10;99.90;;;;;;5069754;28;20051;-82
2023/01/30 10:14:00;;;;;;;18.00;3.42;;;7.00;99.90;;;;;;5054960;28;20124;-83
2023/01/30 10:16:43;;;;;;;14.05;3.05;;;7.20;99.90;;;;;;5052090;28;20147;-83
2023/01/30 10:19:23;;;;;;;16.10;3.53;;;7.00;99.90;;;;;;5054053;28;20041;-84
2023/01/30 10:22:10;;;;;;;25.75;3.78;;;7.00;99.90;;;;;;5055118;28;20061;-82
2023/01/30 10:24:50;;;;;;;14.02;3.45;;;7.00;99.90;;;;;;5054800;28;20448;-80
2023/01/30 10:27:17;;;;;;;12.30;3.05;;;7.00;99.90;;;;;;5053758;28;20077;-81
2023/01/30 10:29:48;;;;;;;19.35;3.60;;;7.10;99.90;;;;;;5054677;28;20045;-80
2023/01/30 10:32:25;;;;;;;17.55;3.50;;;7.10;99.90;;;;;;5054944;28;20123;-81
2023/01/30 10:34:52;;;;;;;;;;;7.20;99.90;;;;;;5055209;28;20085;-80
2023/01/30 10:37:28;;;;;;;14.30;3.40;;;7.20;99.90;;;;;;5052419;28;19998;-80
2023/01/30 10:40:18;;;;;;;18.55;3.70;;;7.30;99.90;;;;;;5068147;28;20044;-80
2023/01/30 10:43:10;;;;;;;22.20;3.40;;;7.30;99.90;;;;;;5074869;28;20071;-79
2023/01/30 10:46:09;;;;;;;9.30;2.85;;;7.40;99.90;;;;;;5074538;28;20059;-80
2023/01/30 10:48:58;;;;;;;14.63;3.28;;;7.40;99.90;;;;;;5074513;28;20056;-79
2023/01/30 10:51:42;;;;;;;21.38;3.83;;;7.40;99.90;;;;;;5074485;28;20056;-80
2023/01/30 10:54:30;;;;;;;10.57;3.67;;;7.70;99.90;;;;;;5074324;28;20052;-81
2023/01/30 10:57:14;;;;;;;18.13;3.75;;;7.50;99.90;;;;;;5072718;28;20451;-80
2023/01/30 10:59:49;;;;;;;22.20;3.30;;;7.60;99.90;;;;;;5056686;28;20055;-80
2023/01/30 11:02:45;;;;;;;19.95;3.17;;;7.60;99.90;;;;;;5052799;28;20084;-80
2023/01/30 11:05:17;;;;;;;14.20;3.40;;;7.70;99.90;;;;;;5053719;28;20045;-85
2023/01/30 11:07:45;;;;;;;14.43;4.32;;;7.80;99.90;;;;;;5053878;28;20160;-78
2023/01/30 11:10:21;;;;;;;13.40;3.25;;;7.80;99.90;;;;;;5073670;28;20082;-86
2023/01/30 11:12:51;;;;;;;18.90;4.50;;;8.70;99.90;;;;;;5056971;28;20048;-81
2023/01/30 11:15:17;;;;;;;14.20;2.75;;;7.70;99.90;;;;;;5074941;28;20048;-82
2023/01/30 11:17:44;;;;;;;21.52;4.05;;;8.30;99.90;;;;;;5073987;28;20507;-83
2023/01/30 11:20:14;;;;;;;;;;;7.50;99.90;;;;;;5074848;28;20451;-79
2023/01/30 11:22:50;;;;;;;19.25;4.25;;;7.40;99.90;;;;;;5074032;28;19920;-85
2023/01/30 11:25:20;;;;;;;19.30;3.35;;;7.80;99.90;;;;;;5072708;28;20067;-81
2023/01/30 11:27:53;;;;;;;17.60;3.35;;;7.00;99.90;;;;;;5073425;28;20045;-80
2023/01/30 11:30:20;;;;;;;15.82;3.00;;;6.90;99.90;;;;;;5072206;28;20121;-81
2023/01/30 11:32:49;;;;;;;;;;;6.70;99.90;;;;;;5074133;28;20123;-78
2023/01/30 11:35:14;;;;;;;20.67;3.58;;;6.60;99.90;;;;;;5073651;28;19928;-80
2023/01/30 11:37:42;;;;;;;14.23;3.30;;;6.40;99.90;;;;;;5073496;28;20048;-78
2023/01/30 11:40:17;;;;;;;16.75;2.83;;;6.30;99.90;;;;;;5073417;28;20048;-76
2023/01/30 11:42:48;;;;;;;12.23;3.05;;;6.40;99.90;;;;;;5073315;28;20093;-82
2023/01/30 11:45:16;;;;;;;17.40;3.60;;;6.40;99.90;;;;;;5055881;28;20048;-80
2023/01/30 11:47:55;;;;;;;12.70;3.03;;;6.50;99.90;;;;;;5073292;28;20045;-80
2023/01/30 11:50:25;;;;;;;15.68;3.22;;;6.60;99.90;;;;;;5073563;28;20052;-82
2023/01/30 11:52:50;;;;;;;12.10;2.80;;;6.60;99.90;;;;;;5073360;28;20446;-81
2023/01/30 11:55:19;;;;;;;14.63;2.95;;;7.80;99.90;;;;;;5072968;28;20041;-81
2023/01/30 11:57:57;;;;;;;14.00;3.22;;;6.90;99.90;;;;;;5073119;28;20048;-82
2023/01/30 12:00:32;;;;;;;13.80;3.00;;;7.00;99.90;;;;;;5062957;28;20063;-80
2023/01/30 12:03:04;;;;;;;15.32;2.80;;;7.10;99.90;;;;;;5053628;28;20052;-81
2023/01/30 12:05:38;;;;;;;14.90;3.30;;;7.00;99.90;;;;;;5053252;28;20056;-80
2023/01/30 12:08:19;;;;;;;12.98;3.38;;;7.20;99.90;;;;;;5072462;28;20045;-79
2023/01/30 12:10:53;;;;;;;19.75;3.30;;;6.80;99.90;;;;;;5072106;28;20434;-80
2023/01/30 12:13:37;;;;;;;14.70;2.63;;;6.60;99.90;;;;;;5075538;28;20048;-82
2023/01/30 12:16:38;;;;;;;12.88;2.78;;;6.50;99.90;;;;;;5077389;28;20048;-80
2023/01/30 12:19:25;;;;;;;24.08;3.78;;;6.40;99.90;;;;;;5073768;28;20048;-79
2023/01/30 12:22:03;;;;;;;11.85;2.72;;;6.30;99.90;;;;;;5077260;28;20123;-79
2023/01/30 12:24:44;;;;;;;8.35;2.70;;;6.40;99.90;;;;;;5075939;28;20131;-80
2023/01/30 12:27:21;;;;;;;6.63;2.00;;;6.50;99.90;;;;;;5076596;28;20053;-81
2023/01/30 12:29:59;;;;;;;12.20;2.38;;;6.70;99.90;;;;;;5058536;28;20052;-81
2023/01/30 12:32:28;;;;;;;6.05;2.03;;;7.00;99.90;;;;;;5056576;28;20049;-80
2023/01/30 12:34:53;;;;;;;11.30;2.47;;;7.20;99.90;;;;;;5056052;28;20107;-81
2023/01/30 12:37:43;;;;;;;9.07;3.22;;;7.30;99.90;;;;;;5070708;28;20492;-79
2023/01/30 12:40:19;;;;;;;3.97;1.60;;;7.30;99.90;;;;;;5076556;28;20052;-79
2023/01/30 12:43:12;;;;;;;5.50;1.70;;;7.30;99.90;;;;;;5059565;28;20046;-80
2023/01/30 12:45:54;;;;;;;8.98;1.90;;;7.20;99.90;;;;;;5075656;28;20060;-80
2023/01/30 12:48:45;;;;;;;6.25;1.95;;;7.10;99.90;;;;;;5076656;28;20075;-80
2023/01/30 12:51:20;;;;;;;9.32;1.88;;;7.10;99.90;;;;;;5075412;28;20037;-80
2023/01/30 12:54:11;;;;;;;10.48;2.13;;;7.10;99.90;;;;;;5076448;28;20381;-82
2023/01/30 12:57:01;;;;;;;7.28;1.80;;;7.10;99.90;;;;;;5076793;28;20039;-80
2023/01/30 13:00:02;;;;;;;9.30;2.45;;;7.10;99.90;;;;;;5075569;28;20114;-79
2023/01/30 13:02:31;;;;;;;8.75;2.20;;;7.10;99.90;;;;;;5067824;28;20057;-79
2023/01/30 13:05:27;;;;;;;13.15;2.78;;;7.10;99.90;;;;;;5075289;28;20427;-79
2023/01/30 13:08:18;;;;;;;5.10;1.88;;;7.20;99.90;;;;;;5076647;28;20037;-79
2023/01/30 13:10:47;;;;;;;11.95;2.58;;;7.20;99.90;;;;;;5075925;28;20044;-79
2023/01/30 13:13:34;;;;;;;10.95;2.58;;;7.10;99.90;;;;;;5076465;28;20173;-78